sensor_id;sensor_type;location;lat;lon;timestamp;pressure;altitude;pressure_sealevel;temperature;humidity
54666;BME280;40566;50.006;36.180;2023-01-27T00:04:38;100608.84;;;-5.30;61.35
54666;BME280;40566;50.006;36.180;2023-01-27T00:09:39;100600.50;;;-5.46;61.57
54666;BME280;40566;50.006;36.180;2023-01-27T00:14:41;100609.09;;;-5.59;61.98
54666;BME280;40566;50.006;36.180;2023-01-27T00:19:41;100605.31;;;-5.67;62.30
54666;BME280;40566;50.006;36.180;2023-01-27T00:24:44;100605.31;;;-5.67;62.04
54666;BME280;40566;50.006;36.180;2023-01-27T00:29:44;100599.88;;;-5.58;61.63
54666;BME280;40566;50.006;36.180;2023-01-27T00:34:45;100589.25;;;-5.69;61.63
54666;BME280;40566;50.006;36.180;2023-01-27T00:39:45;100589.81;;;-5.74;61.69
54666;BME280;40566;50.006;36.180;2023-01-27T00:44:46;100579.66;;;-5.76;61.61
54666;BME280;40566;50.006;36.180;2023-01-27T00:50:07;100586.09;;;-5.81;61.72
54666;BME280;40566;50.006;36.180;2023-01-27T00:55:08;100583.34;;;-5.86;61.89
54666;BME280;40566;50.006;36.180;2023-01-27T01:00:10;100576.03;;;-5.81;61.58
54666;BME280;40566;50.006;36.180;2023-01-27T01:05:11;100566.25;;;-5.91;61.64
54666;BME280;40566;50.006;36.180;2023-01-27T01:10:11;100557.56;;;-5.98;61.71
54666;BME280;40566;50.006;36.180;2023-01-27T01:15:12;100558.75;;;-6.08;61.97
54666;BME280;40566;50.006;36.180;2023-01-27T01:20:13;100553.72;;;-6.08;61.93
54666;BME280;40566;50.006;36.180;2023-01-27T01:25:13;100553.63;;;-6.09;62.08
54666;BME280;40566;50.006;36.180;2023-01-27T01:30:14;100551.75;;;-6.13;62.08
54666;BME280;40566;50.006;36.180;2023-01-27T01:35:15;100554.97;;;-6.16;61.77
54666;BME280;40566;50.006;36.180;2023-01-27T01:40:16;100559.03;;;-6.18;61.94
54666;BME280;40566;50.006;36.180;2023-01-27T01:50:33;100570.44;;;-6.08;61.47
54666;BME280;40566;50.006;36.180;2023-01-27T01:55:36;100566.84;;;-6.13;61.46
54666;BME280;40566;50.006;36.180;2023-01-27T02:00:39;100569.28;;;-6.15;61.35
54666;BME280;40566;50.006;36.180;2023-01-27T02:05:41;100571.78;;;-6.15;61.16
54666;BME280;40566;50.006;36.180;2023-01-27T02:10:43;100570.06;;;-6.16;61.08
54666;BME280;40566;50.006;36.180;2023-01-27T02:15:44;100544.09;;;-6.15;61.16
54666;BME280;40566;50.006;36.180;2023-01-27T02:20:47;100542.44;;;-6.14;61.07
54666;BME280;40566;50.006;36.180;2023-01-27T02:30:52;100524.72;;;-6.32;61.71
54666;BME280;40566;50.006;36.180;2023-01-27T02:36:12;100516.22;;;-6.34;61.69
54666;BME280;40566;50.006;36.180;2023-01-27T02:41:27;100512.63;;;-6.40;61.56
54666;BME280;40566;50.006;36.180;2023-01-27T02:46:29;100517.72;;;-6.38;61.57
54666;BME280;40566;50.006;36.180;2023-01-27T02:51:29;100510.38;;;-6.50;61.73
54666;BME280;40566;50.006;36.180;2023-01-27T02:56:30;100513.69;;;-6.51;61.60
54666;BME280;40566;50.006;36.180;2023-01-27T03:01:31;100526.59;;;-6.45;61.47
54666;BME280;40566;50.006;36.180;2023-01-27T03:06:34;100528.56;;;-6.39;60.90
54666;BME280;40566;50.006;36.180;2023-01-27T03:11:35;100508.34;;;-6.41;60.92
54666;BME280;40566;50.006;36.180;2023-01-27T03:16:54;100518.00;;;-6.48;61.03
54666;BME280;40566;50.006;36.180;2023-01-27T03:22:13;100511.63;;;-6.58;61.54
54666;BME280;40566;50.006;36.180;2023-01-27T03:27:14;100516.00;;;-6.70;61.86
54666;BME280;40566;50.006;36.180;2023-01-27T03:32:14;100510.97;;;-6.70;61.88
54666;BME280;40566;50.006;36.180;2023-01-27T03:37:15;100510.97;;;-6.70;62.09
54666;BME280;40566;50.006;36.180;2023-01-27T03:42:34;100502.09;;;-6.64;61.75
54666;BME280;40566;50.006;36.180;2023-01-27T03:47:53;100510.28;;;-6.68;61.74
54666;BME280;40566;50.006;36.180;2023-01-27T03:52:54;100514.88;;;-6.75;62.19
54666;BME280;40566;50.006;36.180;2023-01-27T03:58:16;100505.78;;;-6.73;61.72
54666;BME280;40566;50.006;36.180;2023-01-27T04:03:19;100516.00;;;-6.70;61.56
54666;BME280;40566;50.006;36.180;2023-01-27T04:08:42;100517.50;;;-6.74;61.66
54666;BME280;40566;50.006;36.180;2023-01-27T04:13:42;100515.44;;;-6.81;61.98
54666;BME280;40566;50.006;36.180;2023-01-27T04:18:43;100521.97;;;-6.85;62.04
54666;BME280;40566;50.006;36.180;2023-01-27T04:23:45;100521.16;;;-6.84;61.85
54666;BME280;40566;50.006;36.180;2023-01-27T04:28:46;100516.44;;;-6.78;61.85
54666;BME280;40566;50.006;36.180;2023-01-27T04:33:47;100519.91;;;-6.75;61.65
54666;BME280;40566;50.006;36.180;2023-01-27T04:38:48;100513.09;;;-6.78;62.00
54666;BME280;40566;50.006;36.180;2023-01-27T04:43:48;100512.38;;;-6.75;62.07
54666;BME280;40566;50.006;36.180;2023-01-27T04:48:49;100517.66;;;-6.71;62.14
54666;BME280;40566;50.006;36.180;2023-01-27T04:53:50;100509.41;;;-6.68;61.81
54666;BME280;40566;50.006;36.180;2023-01-27T04:58:51;100509.53;;;-6.82;62.00
54666;BME280;40566;50.006;36.180;2023-01-27T05:03:52;100521.97;;;-6.85;62.33
54666;BME280;40566;50.006;36.180;2023-01-27T05:08:53;100533.91;;;-6.81;62.30
54666;BME280;40566;50.006;36.180;2023-01-27T05:13:53;100537.28;;;-6.80;62.34
54666;BME280;40566;50.006;36.180;2023-01-27T05:18:54;100546.91;;;-6.73;62.26
54666;BME280;40566;50.006;36.180;2023-01-27T05:23:55;100537.69;;;-6.72;61.82
54666;BME280;40566;50.006;36.180;2023-01-27T05:28:57;100545.44;;;-6.69;62.03
54666;BME280;40566;50.006;36.180;2023-01-27T05:33:59;100549.75;;;-6.67;62.21
54666;BME280;40566;50.006;36.180;2023-01-27T05:39:00;100547.56;;;-6.61;61.95
54666;BME280;40566;50.006;36.180;2023-01-27T05:44:01;100548.75;;;-6.54;62.13
54666;BME280;40566;50.006;36.180;2023-01-27T05:49:03;100545.91;;;-6.60;62.51
54666;BME280;40566;50.006;36.180;2023-01-27T05:54:05;100550.63;;;-6.50;62.51
54666;BME280;40566;50.006;36.180;2023-01-27T05:59:07;100558.78;;;-6.39;62.18
54666;BME280;40566;50.006;36.180;2023-01-27T06:04:09;100568.47;;;-6.30;62.16
54666;BME280;40566;50.006;36.180;2023-01-27T06:09:09;100572.59;;;-6.16;61.84
54666;BME280;40566;50.006;36.180;2023-01-27T06:14:10;100566.00;;;-6.14;61.97
54666;BME280;40566;50.006;36.180;2023-01-27T06:19:11;100564.63;;;-6.24;62.43
54666;BME280;40566;50.006;36.180;2023-01-27T06:24:12;100560.91;;;-6.30;62.98
54666;BME280;40566;50.006;36.180;2023-01-27T06:29:12;100551.34;;;-6.21;62.70
54666;BME280;40566;50.006;36.180;2023-01-27T06:34:13;100549.94;;;-6.16;62.77
54666;BME280;40566;50.006;36.180;2023-01-27T06:39:13;100548.91;;;-6.20;62.64
54666;BME280;40566;50.006;36.180;2023-01-27T06:44:15;100540.94;;;-6.11;62.47
54666;BME280;40566;50.006;36.180;2023-01-27T06:49:17;100537.81;;;-6.07;62.76
54666;BME280;40566;50.006;36.180;2023-01-27T06:54:18;100534.56;;;-5.88;62.73
54666;BME280;40566;50.006;36.180;2023-01-27T06:59:18;100533.16;;;-5.65;62.14
54666;BME280;40566;50.006;36.180;2023-01-27T07:04:19;100526.53;;;-5.46;62.18
54666;BME280;40566;50.006;36.180;2023-01-27T07:09:19;100519.72;;;-5.31;62.19
54666;BME280;40566;50.006;36.180;2023-01-27T07:14:20;100524.72;;;-5.14;62.44
54666;BME280;40566;50.006;36.180;2023-01-27T07:19:21;100527.25;;;-4.96;62.09
54666;BME280;40566;50.006;36.180;2023-01-27T07:24:21;100524.13;;;-4.73;61.98
54666;BME280;40566;50.006;36.180;2023-01-27T07:29:22;100535.88;;;-4.55;61.96
54666;BME280;40566;50.006;36.180;2023-01-27T07:34:23;100531.44;;;-4.42;61.98
54666;BME280;40566;50.006;36.180;2023-01-27T07:39:25;100531.91;;;-4.31;62.23
54666;BME280;40566;50.006;36.180;2023-01-27T07:44:26;100531.06;;;-4.12;62.06
54666;BME280;40566;50.006;36.180;2023-01-27T07:49:27;100517.25;;;-4.01;62.26
54666;BME280;40566;50.006;36.180;2023-01-27T07:54:28;100512.84;;;-3.85;62.08
54666;BME280;40566;50.006;36.180;2023-01-27T07:59:28;100509.03;;;-3.75;62.01
54666;BME280;40566;50.006;36.180;2023-01-27T08:04:29;100509.00;;;-3.56;62.10
54666;BME280;40566;50.006;36.180;2023-01-27T08:09:29;100510.44;;;-3.42;62.05
54666;BME280;40566;50.006;36.180;2023-01-27T08:14:30;100508.50;;;-3.28;62.02
54666;BME280;40566;50.006;36.180;2023-01-27T08:19:31;100500.72;;;-3.11;62.21
54666;BME280;40566;50.006;36.180;2023-01-27T08:24:32;100490.19;;;-3.00;62.14
54666;BME280;40566;50.006;36.180;2023-01-27T08:29:32;100490.28;;;-2.75;62.22
54666;BME280;40566;50.006;36.180;2023-01-27T08:34:33;100482.09;;;-2.46;61.94
54666;BME280;40566;50.006;36.180;2023-01-27T08:39:34;100475.06;;;-1.02;58.81
54666;BME280;40566;50.006;36.180;2023-01-27T08:44:35;100470.44;;;2.36;49.98
54666;BME280;40566;50.006;36.180;2023-01-27T08:49:35;100465.72;;;3.85;47.75
54666;BME280;40566;50.006;36.180;2023-01-27T08:54:36;100445.88;;;6.27;43.68
54666;BME280;40566;50.006;36.180;2023-01-27T08:59:36;100458.28;;;8.09;41.00
54666;BME280;40566;50.006;36.180;2023-01-27T09:04:37;100449.03;;;10.32;37.78
54666;BME280;40566;50.006;36.180;2023-01-27T09:09:41;100439.34;;;11.43;36.49
54666;BME280;40566;50.006;36.180;2023-01-27T09:14:41;100434.97;;;11.89;36.61
54666;BME280;40566;50.006;36.180;2023-01-27T09:19:42;100427.31;;;11.81;37.00
54666;BME280;40566;50.006;36.180;2023-01-27T09:24:43;100424.13;;;9.66;41.03
54666;BME280;40566;50.006;36.180;2023-01-27T09:29:43;100427.38;;;9.09;42.19
54666;BME280;40566;50.006;36.180;2023-01-27T09:34:44;100428.94;;;9.24;41.91
54666;BME280;40566;50.006;36.180;2023-01-27T09:39:52;100425.94;;;9.60;41.18
54666;BME280;40566;50.006;36.180;2023-01-27T09:50:30;100410.41;;;7.71;44.42
54666;BME280;40566;50.006;36.180;2023-01-27T10:17:00;100352.72;;;11.15;39.28
54666;BME280;40566;50.006;36.180;2023-01-27T10:22:16;100323.41;;;11.53;39.13
54666;BME280;40566;50.006;36.180;2023-01-27T10:27:23;100318.34;;;12.56;37.62
54666;BME280;40566;50.006;36.180;2023-01-27T11:04:47;100292.22;;;10.28;40.13
54666;BME280;40566;50.006;36.180;2023-01-27T11:09:55;100292.34;;;7.11;45.49
54666;BME280;40566;50.006;36.180;2023-01-27T11:14:57;100295.91;;;5.30;49.11
54666;BME280;40566;50.006;36.180;2023-01-27T11:20:26;100299.91;;;4.57;49.59
54666;BME280;40566;50.006;36.180;2023-01-27T11:25:36;100312.28;;;3.95;50.02
54666;BME280;40566;50.006;36.180;2023-01-27T11:30:50;100315.28;;;3.50;50.14
54666;BME280;40566;50.006;36.180;2023-01-27T11:35:52;100313.19;;;3.15;50.62
54666;BME280;40566;50.006;36.180;2023-01-27T11:40:53;100316.25;;;2.85;50.92
54666;BME280;40566;50.006;36.180;2023-01-27T11:45:59;100304.22;;;2.77;50.73
54666;BME280;40566;50.006;36.180;2023-01-27T11:51:01;100302.38;;;2.67;50.54
54666;BME280;40566;50.006;36.180;2023-01-27T11:56:06;100288.59;;;2.53;50.69
54666;BME280;40566;50.006;36.180;2023-01-27T12:01:14;100290.81;;;2.31;50.91
54666;BME280;40566;50.006;36.180;2023-01-27T12:06:34;100280.47;;;2.22;50.95
54666;BME280;40566;50.006;36.180;2023-01-27T12:11:36;100276.09;;;2.15;51.21
54666;BME280;40566;50.006;36.180;2023-01-27T12:16:43;100274.34;;;2.11;51.01
54666;BME280;40566;50.006;36.180;2023-01-27T12:21:48;100278.41;;;1.98;51.24
54666;BME280;40566;50.006;36.180;2023-01-27T12:26:50;100284.31;;;1.95;51.50
54666;BME280;40566;50.006;36.180;2023-01-27T12:31:53;100272.22;;;1.84;51.52
54666;BME280;40566;50.006;36.180;2023-01-27T12:36:56;100275.63;;;1.83;51.61
54666;BME280;40566;50.006;36.180;2023-01-27T12:41:57;100268.69;;;1.74;51.70
54666;BME280;40566;50.006;36.180;2023-01-27T12:47:05;100258.28;;;1.63;51.78
54666;BME280;40566;50.006;36.180;2023-01-27T12:52:19;100258.94;;;1.51;52.07
54666;BME280;40566;50.006;36.180;2023-01-27T12:57:20;100259.63;;;1.41;52.37
54666;BME280;40566;50.006;36.180;2023-01-27T13:02:29;100263.06;;;1.43;52.20
54666;BME280;40566;50.006;36.180;2023-01-27T13:07:44;100252.66;;;1.31;52.41
54666;BME280;40566;50.006;36.180;2023-01-27T13:12:53;100243.97;;;1.21;52.54
54666;BME280;40566;50.006;36.180;2023-01-27T13:17:56;100235.34;;;1.14;52.77
54666;BME280;40566;50.006;36.180;2023-01-27T13:23:36;100229.88;;;0.93;52.92
54666;BME280;40566;50.006;36.180;2023-01-27T13:28:56;100233.16;;;0.89;53.07
54666;BME280;40566;50.006;36.180;2023-01-27T13:44:53;100238.56;;;0.60;53.60
54666;BME280;40566;50.006;36.180;2023-01-27T13:50:04;100233.13;;;0.45;53.83
54666;BME280;40566;50.006;36.180;2023-01-27T13:55:11;100229.50;;;0.32;53.98
54666;BME280;40566;50.006;36.180;2023-01-27T14:00:21;100230.13;;;0.23;53.96
54666;BME280;40566;50.006;36.180;2023-01-27T14:11:28;100239.81;;;0.02;54.39
54666;BME280;40566;50.006;36.180;2023-01-27T14:22:36;100241.75;;;-0.25;54.81
54666;BME280;40566;50.006;36.180;2023-01-27T14:27:43;100244.06;;;-0.35;55.12
54666;BME280;40566;50.006;36.180;2023-01-27T14:33:10;100247.31;;;-0.40;55.20
54666;BME280;40566;50.006;36.180;2023-01-27T14:38:21;100253.00;;;-0.51;55.42
54666;BME280;40566;50.006;36.180;2023-01-27T14:49:32;100253.50;;;-0.65;55.70
54666;BME280;40566;50.006;36.180;2023-01-27T15:10:29;100262.03;;;-0.94;56.11
54666;BME280;40566;50.006;36.180;2023-01-27T15:25:55;100263.31;;;-1.09;56.64
54666;BME280;40566;50.006;36.180;2023-01-27T15:41:24;100278.13;;;-1.24;56.97
54666;BME280;40566;50.006;36.180;2023-01-27T15:46:36;100266.97;;;-1.29;56.93
54666;BME280;40566;50.006;36.180;2023-01-27T15:51:41;100266.03;;;-1.33;57.12
54666;BME280;40566;50.006;36.180;2023-01-27T15:56:47;100260.81;;;-1.37;57.28
54666;BME280;40566;50.006;36.180;2023-01-27T16:02:00;100264.91;;;-1.43;57.25
54666;BME280;40566;50.006;36.180;2023-01-27T16:07:03;100274.09;;;-1.46;57.49
54666;BME280;40566;50.006;36.180;2023-01-27T16:17:30;100275.53;;;-1.54;57.57
54666;BME280;40566;50.006;36.180;2023-01-27T16:22:34;100268.66;;;-1.58;57.68
54666;BME280;40566;50.006;36.180;2023-01-27T16:38:19;100254.47;;;-1.81;58.10
54666;BME280;40566;50.006;36.180;2023-01-27T16:43:26;100241.75;;;-1.82;58.25
54666;BME280;40566;50.006;36.180;2023-01-27T16:48:43;100242.53;;;-1.85;58.18
54666;BME280;40566;50.006;36.180;2023-01-27T16:53:48;100245.88;;;-1.86;58.31
54666;BME280;40566;50.006;36.180;2023-01-27T16:58:51;100249.09;;;-1.91;58.46
54666;BME280;40566;50.006;36.180;2023-01-27T17:03:57;100271.09;;;-1.90;58.42
54666;BME280;40566;50.006;36.180;2023-01-27T17:08:58;100274.47;;;-1.90;58.32
54666;BME280;40566;50.006;36.180;2023-01-27T17:14:12;100275.78;;;-2.03;58.39
54666;BME280;40566;50.006;36.180;2023-01-27T17:19:18;100260.44;;;-2.07;58.66
54666;BME280;40566;50.006;36.180;2023-01-27T17:24:27;100264.44;;;-2.14;58.74
54666;BME280;40566;50.006;36.180;2023-01-27T17:29:36;100260.84;;;-2.21;58.95
54666;BME280;40566;50.006;36.180;2023-01-27T17:34:37;100253.91;;;-2.26;59.19
54666;BME280;40566;50.006;36.180;2023-01-27T17:39:40;100254.69;;;-2.29;59.21
54666;BME280;40566;50.006;36.180;2023-01-27T17:44:41;100267.44;;;-2.26;59.03
54666;BME280;40566;50.006;36.180;2023-01-27T17:49:43;100252.94;;;-2.30;58.95
54666;BME280;40566;50.006;36.180;2023-01-27T17:54:46;100261.16;;;-2.37;59.21
54666;BME280;40566;50.006;36.180;2023-01-27T18:05:13;100248.81;;;-2.53;59.42
54666;BME280;40566;50.006;36.180;2023-01-27T18:10:24;100243.53;;;-2.60;59.56
54666;BME280;40566;50.006;36.180;2023-01-27T18:21:12;100241.78;;;-2.62;59.60
54666;BME280;40566;50.006;36.180;2023-01-27T18:26:52;100218.78;;;-2.68;59.63
54666;BME280;40566;50.006;36.180;2023-01-27T18:31:55;100217.63;;;-2.78;59.98
54666;BME280;40566;50.006;36.180;2023-01-27T18:37:02;100218.34;;;-2.81;60.02
54666;BME280;40566;50.006;36.180;2023-01-27T18:42:11;100209.97;;;-2.80;59.92
54666;BME280;40566;50.006;36.180;2023-01-27T18:52:17;100205.50;;;-2.87;60.22
54666;BME280;40566;50.006;36.180;2023-01-27T18:57:18;100214.06;;;-2.83;60.17
54666;BME280;40566;50.006;36.180;2023-01-27T19:02:19;100214.78;;;-2.87;60.25
54666;BME280;40566;50.006;36.180;2023-01-27T19:07:19;100228.19;;;-2.90;60.29
54666;BME280;40566;50.006;36.180;2023-01-27T19:12:23;100234.09;;;-2.89;60.37
54666;BME280;40566;50.006;36.180;2023-01-27T19:17:24;100234.75;;;-2.95;60.58
54666;BME280;40566;50.006;36.180;2023-01-27T19:22:24;100238.91;;;-2.97;60.54
54666;BME280;40566;50.006;36.180;2023-01-27T19:27:26;100247.25;;;-3.00;60.60
54666;BME280;40566;50.006;36.180;2023-01-27T19:32:28;100240.41;;;-3.02;60.74
54666;BME280;40566;50.006;36.180;2023-01-27T19:37:29;100247.84;;;-3.07;60.89
54666;BME280;40566;50.006;36.180;2023-01-27T19:42:29;100261.41;;;-3.05;60.95
54666;BME280;40566;50.006;36.180;2023-01-27T19:47:30;100256.97;;;-3.10;60.95
54666;BME280;40566;50.006;36.180;2023-01-27T19:52:30;100255.28;;;-3.11;60.98
54666;BME280;40566;50.006;36.180;2023-01-27T19:57:31;100250.16;;;-3.13;60.94
54666;BME280;40566;50.006;36.180;2023-01-27T20:02:32;100252.53;;;-3.17;61.05
54666;BME280;40566;50.006;36.180;2023-01-27T20:07:34;100254.03;;;-3.23;61.30
54666;BME280;40566;50.006;36.180;2023-01-27T20:12:35;100245.44;;;-3.28;61.33
54666;BME280;40566;50.006;36.180;2023-01-27T20:17:37;100243.56;;;-3.32;61.34
54666;BME280;40566;50.006;36.180;2023-01-27T20:22:37;100241.69;;;-3.37;61.17
54666;BME280;40566;50.006;36.180;2023-01-27T20:27:38;100230.59;;;-3.41;61.32
54666;BME280;40566;50.006;36.180;2023-01-27T20:32:39;100237.16;;;-3.46;61.37
54666;BME280;40566;50.006;36.180;2023-01-27T20:37:40;100223.09;;;-3.62;61.48
54666;BME280;40566;50.006;36.180;2023-01-27T20:42:41;100201.66;;;-3.72;61.83
54666;BME280;40566;50.006;36.180;2023-01-27T20:47:41;100201.88;;;-3.66;61.32
54666;BME280;40566;50.006;36.180;2023-01-27T20:52:43;100202.41;;;-3.74;61.36
54666;BME280;40566;50.006;36.180;2023-01-27T20:57:45;100210.47;;;-3.85;61.63
54666;BME280;40566;50.006;36.180;2023-01-27T21:02:46;100209.50;;;-3.88;61.60
54666;BME280;40566;50.006;36.180;2023-01-27T21:07:46;100204.22;;;-3.94;61.74
54666;BME280;40566;50.006;36.180;2023-01-27T21:12:49;100196.44;;;-3.99;61.87
54666;BME280;40566;50.006;36.180;2023-01-27T21:17:50;100195.56;;;-4.00;62.01
54666;BME280;40566;50.006;36.180;2023-01-27T21:22:50;100187.84;;;-4.04;61.85
54666;BME280;40566;50.006;36.180;2023-01-27T21:27:51;100188.53;;;-4.08;61.81
54666;BME280;40566;50.006;36.180;2023-01-27T21:32:52;100192.53;;;-4.13;62.12
54666;BME280;40566;50.006;36.180;2023-01-27T21:37:52;100177.19;;;-4.18;62.09
54666;BME280;40566;50.006;36.180;2023-01-27T21:42:53;100152.72;;;-4.19;62.18
54666;BME280;40566;50.006;36.180;2023-01-27T21:48:12;100140.47;;;-4.10;61.93
54666;BME280;40566;50.006;36.180;2023-01-27T21:53:14;100141.22;;;-4.12;61.98
54666;BME280;40566;50.006;36.180;2023-01-27T21:58:14;100156.41;;;-4.11;62.05
54666;BME280;40566;50.006;36.180;2023-01-27T22:03:15;100157.78;;;-4.19;62.06
54666;BME280;40566;50.006;36.180;2023-01-27T22:08:16;100161.81;;;-4.24;62.61
54666;BME280;40566;50.006;36.180;2023-01-27T22:13:16;100164.22;;;-4.27;62.42
54666;BME280;40566;50.006;36.180;2023-01-27T22:18:17;100173.09;;;-4.37;62.73
54666;BME280;40566;50.006;36.180;2023-01-27T22:23:17;100176.13;;;-4.46;62.84
54666;BME280;40566;50.006;36.180;2023-01-27T22:28:20;100172.69;;;-4.48;62.68
54666;BME280;40566;50.006;36.180;2023-01-27T22:33:22;100170.03;;;-4.51;63.08
54666;BME280;40566;50.006;36.180;2023-01-27T22:38:22;100173.22;;;-4.55;63.10
54666;BME280;40566;50.006;36.180;2023-01-27T22:43:23;100164.59;;;-4.60;63.05
54666;BME280;40566;50.006;36.180;2023-01-27T22:48:24;100158.69;;;-4.61;63.13
54666;BME280;40566;50.006;36.180;2023-01-27T22:53:24;100156.78;;;-4.66;63.02
54666;BME280;40566;50.006;36.180;2023-01-27T22:58:26;100134.44;;;-4.78;62.99
54666;BME280;40566;50.006;36.180;2023-01-27T23:03:27;100151.44;;;-4.74;63.20
54666;BME280;40566;50.006;36.180;2023-01-27T23:08:27;100141.34;;;-4.74;63.04
54666;BME280;40566;50.006;36.180;2023-01-27T23:13:29;100134.53;;;-4.76;63.03
54666;BME280;40566;50.006;36.180;2023-01-27T23:18:29;100131.00;;;-4.80;63.16
54666;BME280;40566;50.006;36.180;2023-01-27T23:23:30;100130.22;;;-4.79;63.03
54666;BME280;40566;50.006;36.180;2023-01-27T23:28:31;100132.56;;;-4.84;62.99
54666;BME280;40566;50.006;36.180;2023-01-27T23:33:34;100131.50;;;-4.89;63.26
54666;BME280;40566;50.006;36.180;2023-01-27T23:38:35;100123.03;;;-4.91;63.23
54666;BME280;40566;50.006;36.180;2023-01-27T23:43:36;100122.03;;;-4.94;63.46
54666;BME280;40566;50.006;36.180;2023-01-27T23:48:37;100118.72;;;-4.93;63.07
54666;BME280;40566;50.006;36.180;2023-01-27T23:53:37;100117.97;;;-4.91;63.18
54666;BME280;40566;50.006;36.180;2023-01-27T23:58:38;100137.31;;;-4.91;63.20
